createdAt,value
2022-10-02T00:00:22.040Z,3.00
2022-10-02T00:02:54.992Z,2.13
2022-10-02T00:05:26.676Z,8.57
2022-10-02T00:08:02.058Z,9.63
2022-10-02T00:10:35.665Z,3.10
2022-10-02T00:13:07.051Z,9.27
2022-10-02T00:15:38.473Z,11.90
2022-10-02T00:18:13.220Z,11.52
2022-10-02T00:20:46.998Z,5.00
2022-10-02T00:23:21.912Z,7.45
2022-10-02T00:25:58.548Z,19.13
2022-10-02T00:28:30.908Z,7.32
2022-10-02T00:31:15.587Z,4.80
2022-10-02T00:33:53.752Z,3.40
2022-10-02T00:36:33.052Z,3.63
2022-10-02T00:39:07.020Z,3.08
2022-10-02T00:42:12.206Z,4.60
2022-10-02T00:45:18.452Z,4.35
2022-10-02T00:47:54.423Z,4.07
2022-10-02T00:50:35.395Z,2.95
2022-10-02T00:53:15.795Z,3.88
2022-10-02T00:56:04.879Z,5.15
2022-10-02T00:58:46.504Z,7.60
2022-10-02T01:01:19.282Z,3.97
2022-10-02T01:03:53.355Z,5.35
2022-10-02T01:06:24.251Z,7.53
2022-10-02T01:08:52.963Z,6.85
2022-10-02T01:11:22.983Z,16.52
2022-10-02T01:13:52.907Z,30.48
2022-10-02T01:16:21.232Z,15.25
2022-10-02T01:18:49.556Z,12.55
2022-10-02T01:21:23.125Z,22.58
2022-10-02T01:23:57.899Z,20.58
2022-10-02T01:26:27.481Z,30.38
2022-10-02T01:28:55.728Z,12.65
2022-10-02T01:31:25.031Z,19.95
2022-10-02T01:33:54.400Z,17.48
2022-10-02T01:36:23.789Z,14.73
2022-10-02T01:38:53.283Z,8.73
2022-10-02T01:41:21.654Z,6.18
2022-10-02T01:43:53.633Z,6.05
2022-10-02T01:46:37.331Z,5.85
2022-10-02T01:49:31.313Z,4.80
2022-10-02T01:52:14.254Z,3.08
2022-10-02T01:54:51.634Z,3.42
2022-10-02T01:57:28.990Z,5.78
2022-10-02T02:00:08.431Z,3.55
2022-10-02T02:02:49.602Z,4.60
2022-10-02T02:05:29.018Z,4.78
2022-10-02T02:08:05.891Z,4.88
2022-10-02T02:10:44.860Z,5.13
2022-10-02T02:13:17.328Z,6.03
2022-10-02T02:15:53.549Z,6.20
2022-10-02T02:18:26.748Z,6.55
2022-10-02T02:21:00.413Z,4.80
2022-10-02T02:23:33.507Z,3.63
2022-10-02T02:26:07.665Z,5.28
2022-10-02T02:28:39.073Z,4.95
2022-10-02T02:31:12.922Z,5.75
2022-10-02T02:33:45.914Z,11.80
2022-10-02T02:36:19.246Z,6.82
2022-10-02T02:41:25.162Z,4.03
2022-10-02T02:44:00.237Z,5.50
2022-10-02T02:46:34.303Z,6.45
2022-10-02T02:49:08.818Z,7.07
2022-10-02T02:51:41.548Z,7.30
2022-10-02T02:54:17.858Z,7.32
2022-10-02T02:56:48.273Z,6.13
2022-10-02T02:59:17.626Z,9.00
2022-10-02T03:01:47.674Z,5.68
2022-10-02T03:04:16.326Z,9.02
2022-10-02T03:06:46.283Z,12.60
2022-10-02T03:09:17.422Z,9.77
2022-10-02T03:11:54.007Z,8.25
2022-10-02T03:14:46.168Z,8.63
2022-10-02T03:17:27.129Z,10.52
2022-10-02T03:20:01.778Z,12.30
2022-10-02T03:22:41.266Z,8.63
2022-10-02T03:25:13.811Z,8.38
2022-10-02T03:27:47.582Z,8.73
2022-10-02T03:30:20.602Z,5.43
2022-10-02T03:32:53.668Z,9.45
2022-10-02T03:35:24.890Z,8.52
2022-10-02T03:37:55.462Z,6.70
2022-10-02T03:40:25.491Z,7.13
2022-10-02T03:42:58.270Z,9.07
2022-10-02T03:45:49.587Z,10.73
2022-10-02T03:48:17.722Z,6.38
2022-10-02T03:50:47.183Z,7.32
2022-10-02T03:53:17.322Z,11.15
2022-10-02T03:55:49.147Z,9.35
2022-10-02T03:58:19.431Z,9.52
2022-10-02T04:00:56.483Z,9.73
2022-10-02T04:03:28.946Z,8.50
2022-10-02T04:06:02.298Z,10.27
2022-10-02T04:08:34.214Z,6.93
2022-10-02T04:11:08.656Z,14.73
2022-10-02T04:13:41.091Z,11.48
2022-10-02T04:16:16.066Z,9.10
2022-10-02T04:18:55.193Z,8.32
2022-10-02T04:21:36.602Z,6.97
2022-10-02T04:24:13.572Z,6.47
2022-10-02T04:26:45.556Z,7.15
2022-10-02T04:29:17.565Z,7.18
2022-10-02T04:31:48.721Z,5.68
2022-10-02T04:34:18.588Z,7.55
2022-10-02T04:37:02.099Z,6.18
2022-10-02T04:39:43.474Z,6.47
2022-10-02T04:42:28.482Z,7.35
2022-10-02T04:45:16.214Z,5.13
2022-10-02T04:48:14.174Z,7.78
2022-10-02T04:50:52.802Z,5.80
2022-10-02T04:53:42.258Z,8.40
2022-10-02T04:56:23.338Z,6.43
2022-10-02T04:59:06.571Z,9.82
2022-10-02T05:01:59.078Z,4.65
2022-10-02T05:04:52.387Z,7.95
2022-10-02T05:07:39.263Z,5.75
2022-10-02T05:10:24.083Z,4.93
2022-10-02T05:13:06.125Z,6.97
2022-10-02T05:15:51.946Z,6.10
2022-10-02T05:18:42.265Z,6.03
2022-10-02T05:21:24.076Z,5.65
2022-10-02T05:24:12.331Z,3.70
2022-10-02T05:27:03.034Z,5.15
2022-10-02T05:29:59.728Z,8.52
2022-10-02T05:32:43.270Z,4.55
2022-10-02T05:35:32.199Z,9.05
2022-10-02T05:38:13.860Z,7.32
2022-10-02T05:40:51.597Z,6.22
2022-10-02T05:43:26.417Z,8.10
2022-10-02T05:45:58.035Z,9.80
2022-10-02T05:48:30.343Z,5.78
2022-10-02T05:51:03.577Z,14.23
2022-10-02T05:53:38.015Z,9.25
2022-10-02T05:56:15.874Z,7.82
2022-10-02T05:58:51.467Z,8.85
2022-10-02T06:01:24.878Z,6.20
2022-10-02T06:04:02.644Z,6.90
2022-10-02T06:06:39.202Z,8.68
2022-10-02T06:09:19.572Z,9.63
2022-10-02T06:11:54.244Z,9.60
2022-10-02T06:14:29.890Z,5.82
2022-10-02T06:17:02.126Z,8.82
2022-10-02T06:19:36.202Z,9.15
2022-10-02T06:22:09.680Z,9.05
2022-10-02T06:24:42.277Z,8.07
2022-10-02T06:27:18.761Z,10.23
2022-10-02T06:29:53.186Z,9.38
2022-10-02T06:32:31.788Z,9.25
2022-10-02T06:35:00.079Z,9.50
2022-10-02T06:37:44.275Z,7.13
2022-10-02T06:40:31.056Z,8.05
2022-10-02T06:43:06.897Z,5.57
2022-10-02T06:45:46.181Z,9.07
2022-10-02T06:48:26.435Z,8.25
2022-10-02T06:51:06.529Z,8.25
2022-10-02T06:54:01.276Z,7.53
2022-10-02T06:56:45.479Z,8.43
2022-10-02T06:59:31.024Z,11.05
2022-10-02T07:02:10.818Z,6.43
2022-10-02T07:05:01.328Z,10.60
2022-10-02T07:07:49.295Z,11.40
2022-10-02T07:10:34.350Z,8.73
2022-10-02T07:13:23.951Z,10.85
2022-10-02T07:16:21.081Z,9.07
2022-10-02T07:19:04.569Z,6.68
2022-10-02T07:21:41.749Z,11.68
2022-10-02T07:24:39.482Z,10.38
2022-10-02T07:27:14.971Z,7.35
2022-10-02T07:29:54.399Z,9.48
2022-10-02T07:32:48.739Z,8.52
2022-10-02T07:35:43.357Z,9.45
2022-10-02T07:38:46.934Z,10.27
2022-10-02T07:41:28.596Z,8.98
2022-10-02T07:44:07.393Z,4.40
2022-10-02T07:46:44.437Z,9.68
2022-10-02T07:49:33.056Z,7.70
2022-10-02T07:52:07.758Z,10.32
2022-10-02T07:54:47.808Z,10.40
2022-10-02T07:57:37.626Z,7.07
2022-10-02T08:00:13.001Z,9.90
2022-10-02T08:02:46.946Z,8.68
2022-10-02T08:05:20.442Z,6.85
2022-10-02T08:07:50.944Z,7.53
2022-10-02T08:10:25.759Z,8.18
2022-10-02T08:13:04.311Z,8.15
2022-10-02T08:15:38.801Z,6.40
2022-10-02T08:18:34.314Z,9.05
2022-10-02T08:21:11.048Z,4.18
2022-10-02T08:23:44.103Z,4.65
2022-10-02T08:26:18.668Z,6.45
2022-10-02T08:28:52.515Z,6.13
2022-10-02T08:31:20.879Z,3.70
2022-10-02T08:33:49.083Z,6.78
2022-10-02T08:36:52.033Z,6.97
2022-10-02T08:39:40.489Z,5.63
2022-10-02T08:42:34.846Z,10.68
2022-10-02T08:45:34.299Z,7.38
2022-10-02T08:48:35.056Z,6.43
2022-10-02T08:51:54.355Z,4.45
2022-10-02T08:54:58.316Z,5.07
2022-10-02T08:58:05.236Z,3.38
2022-10-02T09:00:46.754Z,3.92
2022-10-02T09:03:55.370Z,3.53
2022-10-02T09:06:57.112Z,4.22
2022-10-02T09:10:09.296Z,4.85
2022-10-02T09:13:07.165Z,4.93
2022-10-02T09:15:46.891Z,5.18
2022-10-02T09:18:20.413Z,3.05
2022-10-02T09:21:17.333Z,5.40
2022-10-02T09:24:11.792Z,7.15
2022-10-02T09:27:07.712Z,6.95
2022-10-02T09:30:02.577Z,9.35
2022-10-02T09:32:59.600Z,4.90
2022-10-02T09:36:26.715Z,6.30
2022-10-02T09:39:45.028Z,4.00
2022-10-02T09:43:03.981Z,5.70
2022-10-02T09:46:12.622Z,3.63
2022-10-02T09:49:21.901Z,6.40
2022-10-02T09:52:24.930Z,4.22
2022-10-02T09:55:25.941Z,4.93
2022-10-02T09:58:44.856Z,6.10
2022-10-02T10:01:40.681Z,5.05
2022-10-02T10:04:54.151Z,3.22
2022-10-02T10:07:54.923Z,2.50
2022-10-02T10:11:00.558Z,3.42
2022-10-02T10:13:54.225Z,3.97
2022-10-02T10:16:54.031Z,3.10
2022-10-02T10:20:15.963Z,3.20
2022-10-02T10:23:05.802Z,1.63
2022-10-02T10:25:51.894Z,3.45
2022-10-02T10:29:04.764Z,2.10
2022-10-02T10:32:17.551Z,4.05
2022-10-02T10:35:21.597Z,1.83
2022-10-02T10:41:03.022Z,3.72
2022-10-02T10:44:04.742Z,2.05
2022-10-02T10:47:18.439Z,2.35
2022-10-02T10:50:03.807Z,0.65
2022-10-02T10:53:00.317Z,3.45
2022-10-02T10:55:40.062Z,2.30
2022-10-02T10:58:21.307Z,2.67
2022-10-02T11:01:08.168Z,1.10
2022-10-02T11:04:07.432Z,2.45
2022-10-02T11:06:51.796Z,2.15
2022-10-02T11:09:55.801Z,1.50
2022-10-02T11:12:41.208Z,3.95
2022-10-02T11:15:41.400Z,1.13
2022-10-02T11:18:43.588Z,2.17
2022-10-02T11:21:41.822Z,2.03
2022-10-02T11:24:31.738Z,1.58
2022-10-02T11:27:26.028Z,1.90
2022-10-02T11:30:24.058Z,0.63
2022-10-02T11:33:19.287Z,2.35
2022-10-02T11:36:20.312Z,1.33
2022-10-02T11:39:21.664Z,2.20
2022-10-02T11:42:14.328Z,1.48
2022-10-02T11:45:08.740Z,2.47
2022-10-02T11:48:09.211Z,3.03
2022-10-02T11:51:01.970Z,1.90
2022-10-02T11:53:44.863Z,4.32
2022-10-02T11:56:37.504Z,2.30
2022-10-02T11:59:28.314Z,2.42
2022-10-02T12:02:04.702Z,1.85
2022-10-02T12:04:47.522Z,2.53
2022-10-02T12:07:24.752Z,4.10
2022-10-02T12:10:07.782Z,4.10
2022-10-02T12:12:51.510Z,2.35
2022-10-02T12:15:28.088Z,3.72
2022-10-02T12:18:08.006Z,4.43
2022-10-02T12:21:08.235Z,3.67
2022-10-02T12:24:06.490Z,2.15
2022-10-02T12:27:04.117Z,2.03
2022-10-02T12:29:53.141Z,3.03
2022-10-02T12:32:36.520Z,1.52
2022-10-02T12:37:57.212Z,1.92
2022-10-02T12:40:31.917Z,3.08
2022-10-02T12:43:55.366Z,4.35
2022-10-02T12:46:36.720Z,4.90
2022-10-02T12:49:20.315Z,3.17
2022-10-02T12:52:21.375Z,2.00
2022-10-02T12:55:34.494Z,3.83
2022-10-02T12:58:17.253Z,2.40
2022-10-02T13:01:09.616Z,2.65
2022-10-02T13:04:08.259Z,3.47
2022-10-02T13:07:10.946Z,2.50
2022-10-02T13:09:56.147Z,2.60
2022-10-02T13:12:52.895Z,1.92
2022-10-02T13:15:37.285Z,3.53
2022-10-02T13:18:29.970Z,3.60
2022-10-02T13:21:06.138Z,3.58
2022-10-02T13:23:42.860Z,4.90
2022-10-02T13:26:21.767Z,5.55
2022-10-02T13:29:23.835Z,4.07
2022-10-02T13:32:12.095Z,6.40
2022-10-02T13:34:53.648Z,7.25
2022-10-02T13:37:35.436Z,8.57
2022-10-02T13:40:22.925Z,2.55
2022-10-02T13:43:13.752Z,4.53
2022-10-02T13:45:49.918Z,3.28
2022-10-02T13:48:27.503Z,4.22
2022-10-02T13:51:05.665Z,3.58
2022-10-02T13:53:56.863Z,7.68
2022-10-02T13:56:43.911Z,3.85
2022-10-02T13:59:21.587Z,3.28
2022-10-02T14:02:05.137Z,3.33
2022-10-02T14:04:51.233Z,4.93
2022-10-02T14:07:46.638Z,4.40
2022-10-02T14:10:29.540Z,3.42
2022-10-02T14:13:14.875Z,4.35
2022-10-02T14:15:53.378Z,3.08
2022-10-02T14:18:51.524Z,5.57
2022-10-02T14:21:28.127Z,4.22
2022-10-02T14:24:14.698Z,4.35
2022-10-02T14:26:57.810Z,2.58
2022-10-02T14:29:40.987Z,5.00
2022-10-02T14:32:33.289Z,4.68
2022-10-02T14:35:20.150Z,5.63
2022-10-02T14:38:23.851Z,2.33
2022-10-02T14:40:54.776Z,4.68
2022-10-02T14:43:54.528Z,3.03
2022-10-02T14:46:47.451Z,3.45
2022-10-02T14:49:40.877Z,2.42
2022-10-02T14:52:23.035Z,3.25
2022-10-02T14:55:16.870Z,2.72
2022-10-02T14:58:12.500Z,1.88
2022-10-02T15:00:52.885Z,3.40
2022-10-02T15:03:39.984Z,4.63
2022-10-02T15:06:21.919Z,2.38
2022-10-02T15:08:54.769Z,2.72
2022-10-02T15:11:30.586Z,3.75
2022-10-02T15:14:06.190Z,3.22
2022-10-02T15:17:04.279Z,5.10
2022-10-02T15:19:40.276Z,5.45
2022-10-02T15:22:17.810Z,8.70
2022-10-02T15:24:50.849Z,20.48
2022-10-02T15:27:24.766Z,15.15
2022-10-02T15:30:13.341Z,8.43
2022-10-02T15:32:59.209Z,2.47
2022-10-02T15:35:41.343Z,2.42
2022-10-02T15:38:34.215Z,2.42
2022-10-02T15:41:34.920Z,3.80
2022-10-02T15:44:11.616Z,2.20
2022-10-02T15:46:54.201Z,3.92
2022-10-02T15:49:37.857Z,3.47
2022-10-02T15:52:15.687Z,4.18
2022-10-02T15:54:54.808Z,4.47
2022-10-02T15:57:48.910Z,4.78
2022-10-02T16:00:19.636Z,4.43
2022-10-02T16:03:06.266Z,3.75
2022-10-02T16:06:00.262Z,4.60
2022-10-02T16:08:49.397Z,5.00
2022-10-02T16:11:49.817Z,3.60
2022-10-02T16:14:27.909Z,5.50
2022-10-02T16:17:17.494Z,3.97
2022-10-02T16:20:02.687Z,5.32
2022-10-02T16:22:44.927Z,6.68
2022-10-02T16:25:30.012Z,2.78
2022-10-02T16:28:10.861Z,5.28
2022-10-02T16:30:58.882Z,5.45
2022-10-02T16:33:33.761Z,4.72
2022-10-02T16:36:30.101Z,3.78
2022-10-02T16:39:15.631Z,5.30
2022-10-02T16:42:00.601Z,11.35
2022-10-02T16:44:47.236Z,2.33
2022-10-02T16:47:21.016Z,4.15
2022-10-02T16:49:57.781Z,5.00
2022-10-02T16:52:35.057Z,4.70
2022-10-02T16:55:22.214Z,4.82
2022-10-02T16:58:24.571Z,8.05
2022-10-02T17:00:57.551Z,3.20
2022-10-02T17:03:33.828Z,3.22
2022-10-02T17:06:12.229Z,6.82
2022-10-02T17:08:45.336Z,6.43
2022-10-02T17:11:27.616Z,7.03
2022-10-02T17:14:10.401Z,5.50
2022-10-02T17:16:45.585Z,6.93
2022-10-02T17:19:21.804Z,5.00
2022-10-02T17:21:54.514Z,2.95
2022-10-02T17:24:34.653Z,3.75
2022-10-02T17:27:15.404Z,3.83
2022-10-02T17:29:56.839Z,7.30
2022-10-02T17:32:48.542Z,7.97
2022-10-02T17:35:18.624Z,8.43
2022-10-02T17:38:31.360Z,3.30
2022-10-02T17:41:09.849Z,2.97
2022-10-02T17:43:50.723Z,7.13
2022-10-02T17:46:38.708Z,7.95
2022-10-02T17:49:16.963Z,4.13
2022-10-02T17:51:53.481Z,6.63
2022-10-02T17:55:01.849Z,13.60
2022-10-02T17:57:44.703Z,11.10
2022-10-02T18:00:22.874Z,28.92
2022-10-02T18:03:15.035Z,11.55
2022-10-02T18:05:54.435Z,21.17
2022-10-02T18:08:50.423Z,14.10
2022-10-02T18:11:33.206Z,8.73
2022-10-02T18:14:14.071Z,5.53
2022-10-02T18:17:05.145Z,6.30
2022-10-02T18:19:48.115Z,8.18
2022-10-02T18:22:47.204Z,10.32
2022-10-02T18:25:42.949Z,5.10
2022-10-02T18:28:29.156Z,5.43
2022-10-02T18:31:10.384Z,3.95
2022-10-02T18:34:07.219Z,5.72
2022-10-02T18:36:51.856Z,8.23
2022-10-02T18:39:27.719Z,8.25
2022-10-02T18:42:24.803Z,7.30
2022-10-02T18:45:03.411Z,9.02
2022-10-02T18:47:46.043Z,5.45
2022-10-02T18:50:37.119Z,7.25
2022-10-02T18:53:25.510Z,6.05
2022-10-02T18:56:05.777Z,10.48
2022-10-02T18:58:50.365Z,8.77
2022-10-02T19:01:43.037Z,8.43
2022-10-02T19:04:32.447Z,7.50
2022-10-02T19:07:09.646Z,8.27
2022-10-02T19:09:37.808Z,10.73
2022-10-02T19:12:16.664Z,9.00
2022-10-02T19:14:46.958Z,12.13
2022-10-02T19:17:17.889Z,7.95
2022-10-02T19:19:46.003Z,8.60
2022-10-02T19:22:21.714Z,6.75
2022-10-02T19:24:53.486Z,7.95
2022-10-02T19:27:26.927Z,7.70
2022-10-02T19:29:57.818Z,8.30
2022-10-02T19:32:30.340Z,8.68
2022-10-02T19:35:03.332Z,10.83
2022-10-02T19:37:33.270Z,11.30
2022-10-02T19:40:04.412Z,12.15
2022-10-02T19:42:43.015Z,11.75
2022-10-02T19:45:25.484Z,7.45
2022-10-02T19:47:58.187Z,12.05
2022-10-02T19:50:33.655Z,9.30
2022-10-02T19:53:06.946Z,6.97
2022-10-02T19:58:14.322Z,8.85
2022-10-02T20:00:43.558Z,11.32
2022-10-02T20:03:18.193Z,9.38
2022-10-02T20:05:49.021Z,9.63
2022-10-02T20:08:21.037Z,9.90
2022-10-02T20:10:55.772Z,8.27
2022-10-02T20:13:29.332Z,13.52
2022-10-02T20:16:20.111Z,7.70
2022-10-02T20:18:50.522Z,13.57
2022-10-02T20:21:24.728Z,8.38
2022-10-02T20:23:58.290Z,11.57
2022-10-02T20:26:32.623Z,9.38
2022-10-02T20:29:03.800Z,17.02
2022-10-02T20:31:39.798Z,9.18
2022-10-02T20:34:17.931Z,12.98
2022-10-02T20:37:02.783Z,9.63
2022-10-02T20:39:37.519Z,8.60
2022-10-02T20:42:11.341Z,9.15
2022-10-02T20:44:41.376Z,10.52
2022-10-02T20:47:45.204Z,6.32
2022-10-02T20:50:42.641Z,8.07
2022-10-02T20:53:57.503Z,7.78
2022-10-02T20:57:14.798Z,10.70
2022-10-02T21:00:17.107Z,10.90
2022-10-02T21:03:08.943Z,9.85
2022-10-02T21:06:09.089Z,9.98
2022-10-02T21:09:13.471Z,10.93
2022-10-02T21:12:00.924Z,15.73
2022-10-02T21:14:44.953Z,13.02
2022-10-02T21:17:38.813Z,9.73
2022-10-02T21:23:47.470Z,9.45
2022-10-02T21:26:57.504Z,8.05
2022-10-02T21:29:57.978Z,9.60
2022-10-02T21:32:39.245Z,9.52
2022-10-02T21:35:16.669Z,9.05
2022-10-02T21:38:06.181Z,13.18
2022-10-02T21:41:15.820Z,8.73
2022-10-02T21:44:24.323Z,5.70
2022-10-02T21:47:34.826Z,8.45
2022-10-02T21:50:40.309Z,6.22
2022-10-02T21:53:40.181Z,8.85
2022-10-02T21:56:42.970Z,7.88
2022-10-02T21:59:50.634Z,8.57
2022-10-02T22:02:47.414Z,6.78
2022-10-02T22:06:01.734Z,11.38
2022-10-02T22:11:11.231Z,8.32
2022-10-02T22:13:41.000Z,7.40
2022-10-02T22:16:25.547Z,7.95
2022-10-02T22:19:00.134Z,11.77
2022-10-02T22:21:42.322Z,11.38
2022-10-02T22:24:29.887Z,10.13
2022-10-02T22:27:21.592Z,7.32
2022-10-02T22:29:52.746Z,9.10
2022-10-02T22:33:11.792Z,10.70
2022-10-02T22:36:25.194Z,7.35
2022-10-02T22:39:02.831Z,8.95
2022-10-02T22:41:38.591Z,8.07
2022-10-02T22:44:13.357Z,6.22
2022-10-02T22:46:49.431Z,7.97
2022-10-02T22:49:27.414Z,8.10
2022-10-02T22:52:01.942Z,3.28
2022-10-02T22:54:40.188Z,10.77
2022-10-02T22:57:16.806Z,9.65
2022-10-02T22:59:51.562Z,12.60
2022-10-02T23:02:25.293Z,12.43
2022-10-02T23:05:01.440Z,9.73
2022-10-02T23:07:36.035Z,9.02
2022-10-02T23:10:17.310Z,10.13
2022-10-02T23:12:56.256Z,7.05
2022-10-02T23:15:33.020Z,7.07
2022-10-02T23:18:05.093Z,8.55
2022-10-02T23:20:39.186Z,8.30
2022-10-02T23:23:17.877Z,7.53
2022-10-02T23:25:52.148Z,8.63
2022-10-02T23:28:25.968Z,6.97
2022-10-02T23:31:06.366Z,6.68
2022-10-02T23:33:44.133Z,5.85
2022-10-02T23:36:24.194Z,5.90
2022-10-02T23:39:00.443Z,7.30
2022-10-02T23:41:46.622Z,7.60
2022-10-02T23:44:33.244Z,7.90
2022-10-02T23:47:11.235Z,6.55
2022-10-02T23:49:44.010Z,5.70
2022-10-02T23:52:53.894Z,5.03
2022-10-02T23:55:49.655Z,4.70
2022-10-02T23:58:39.644Z,7.38
